createdAt,value
2022-11-23T00:02:19.827Z,42.53
2022-11-23T00:05:05.378Z,46.60
2022-11-23T00:07:50.805Z,37.50
2022-11-23T00:10:36.196Z,38.95
2022-11-23T00:13:21.834Z,38.50
2022-11-23T00:16:11.648Z,48.72
2022-11-23T00:19:01.927Z,47.70
2022-11-23T00:21:47.402Z,40.85
2022-11-23T00:24:32.883Z,45.92
2022-11-23T00:27:18.218Z,41.67
2022-11-23T00:30:05.803Z,38.70
2022-11-23T00:32:51.197Z,44.38
2022-11-23T00:35:39.642Z,40.20
2022-11-23T00:38:25.341Z,44.40
2022-11-23T00:41:14.517Z,47.53
2022-11-23T00:44:00.586Z,35.00
2022-11-23T00:46:45.994Z,44.47
2022-11-23T00:49:31.935Z,37.95
2022-11-23T00:52:17.613Z,37.10
2022-11-23T00:55:03.897Z,42.42
2022-11-23T00:57:49.686Z,34.28
2022-11-23T01:00:35.089Z,35.58
2022-11-23T01:03:21.853Z,38.75
2022-11-23T01:06:10.507Z,33.10
2022-11-23T01:08:58.810Z,38.72
2022-11-23T01:11:49.495Z,38.15
2022-11-23T01:14:35.196Z,35.22
2022-11-23T01:17:23.429Z,41.67
2022-11-23T01:20:10.111Z,35.53
2022-11-23T01:23:01.494Z,37.60
2022-11-23T01:25:53.124Z,51.45
2022-11-23T01:28:42.431Z,46.83
2022-11-23T01:31:28.000Z,35.50
2022-11-23T01:34:14.735Z,47.03
2022-11-23T01:37:04.653Z,38.60
2022-11-23T01:39:53.087Z,40.45
2022-11-23T01:42:59.902Z,31.98
2022-11-23T01:45:58.013Z,37.75
2022-11-23T01:48:52.702Z,33.97
2022-11-23T01:51:41.302Z,41.00
2022-11-23T01:54:38.832Z,29.77
2022-11-23T01:57:31.653Z,28.63
2022-11-23T02:00:19.006Z,31.80
2022-11-23T02:03:06.390Z,30.27
2022-11-23T02:06:00.737Z,25.30
2022-11-23T02:11:52.112Z,24.10
2022-11-23T02:14:37.901Z,27.35
2022-11-23T02:17:23.429Z,32.85
2022-11-23T02:20:12.425Z,27.20
2022-11-23T02:23:04.339Z,34.67
2022-11-23T02:25:58.532Z,30.27
2022-11-23T02:28:49.441Z,29.05
2022-11-23T02:31:34.905Z,22.48
2022-11-23T02:34:20.856Z,26.50
2022-11-23T02:37:06.283Z,31.33
2022-11-23T02:39:53.758Z,24.23
2022-11-23T02:46:07.110Z,26.15
2022-11-23T02:48:52.760Z,28.90
2022-11-23T02:51:40.925Z,32.42
2022-11-23T02:54:26.198Z,25.50
2022-11-23T02:57:12.325Z,31.77
2022-11-23T02:59:59.015Z,26.35
2022-11-23T03:02:44.657Z,31.25
2022-11-23T03:05:30.713Z,27.45
2022-11-23T03:08:15.766Z,35.58
2022-11-23T03:11:02.455Z,35.25
2022-11-23T03:13:49.127Z,28.33
2022-11-23T03:16:38.373Z,29.15
2022-11-23T03:19:24.681Z,33.33
2022-11-23T03:22:11.186Z,30.83
2022-11-23T03:25:02.830Z,30.70
2022-11-23T03:27:48.142Z,35.03
2022-11-23T03:30:33.725Z,30.38
2022-11-23T03:33:21.125Z,29.90
2022-11-23T03:36:07.444Z,33.65
2022-11-23T03:38:59.157Z,28.60
2022-11-23T03:42:13.834Z,29.27
2022-11-23T03:44:58.882Z,31.67
2022-11-23T03:47:44.516Z,27.40
2022-11-23T03:50:29.998Z,29.27
2022-11-23T03:53:18.603Z,30.70
2022-11-23T03:56:05.207Z,35.45
2022-11-23T03:58:54.421Z,28.00
2022-11-23T04:01:39.769Z,26.85
2022-11-23T04:04:28.958Z,28.83
2022-11-23T04:07:28.012Z,30.02
2022-11-23T04:10:20.630Z,29.92
2022-11-23T04:13:18.138Z,25.85
2022-11-23T04:16:07.177Z,30.58
2022-11-23T04:18:52.332Z,29.85
2022-11-23T04:21:40.490Z,27.67
2022-11-23T04:24:26.705Z,29.02
2022-11-23T04:27:14.434Z,27.02
2022-11-23T04:30:02.923Z,25.90
2022-11-23T04:32:52.417Z,31.23
2022-11-23T04:35:39.493Z,26.65
2022-11-23T04:38:26.138Z,24.17
2022-11-23T04:41:17.557Z,29.48
2022-11-23T04:44:03.194Z,26.60
2022-11-23T04:46:50.558Z,21.33
2022-11-23T04:49:38.698Z,19.67
2022-11-23T04:52:24.455Z,22.20
2022-11-23T04:55:09.908Z,18.00
2022-11-23T04:58:02.605Z,24.80
2022-11-23T05:00:50.873Z,22.92
2022-11-23T05:03:36.943Z,17.92
2022-11-23T05:06:25.793Z,24.17
2022-11-23T05:09:12.824Z,25.10
2022-11-23T05:12:30.533Z,20.70
2022-11-23T05:15:17.387Z,28.30
2022-11-23T05:18:06.786Z,22.85
2022-11-23T05:20:53.747Z,23.80
2022-11-23T05:23:39.801Z,22.33
2022-11-23T05:26:25.019Z,25.95
2022-11-23T05:29:11.834Z,21.70
2022-11-23T05:31:57.291Z,23.40
2022-11-23T05:34:42.700Z,25.88
2022-11-23T05:37:30.207Z,25.08
2022-11-23T05:40:19.634Z,16.73
2022-11-23T05:43:06.549Z,22.15
2022-11-23T05:45:53.657Z,19.67
2022-11-23T05:48:40.935Z,24.02
2022-11-23T05:51:28.003Z,24.63
2022-11-23T05:54:13.430Z,24.52
2022-11-23T05:57:09.167Z,20.02
2022-11-23T05:59:56.913Z,17.58
2022-11-23T06:03:01.604Z,15.13
2022-11-23T06:05:52.258Z,16.70
2022-11-23T06:11:35.404Z,18.55
2022-11-23T06:14:26.618Z,26.40
2022-11-23T06:17:12.286Z,18.63
2022-11-23T06:20:09.238Z,27.67
2022-11-23T06:22:59.630Z,22.98
2022-11-23T06:25:45.189Z,20.40
2022-11-23T06:28:39.057Z,16.73
2022-11-23T06:31:28.035Z,21.63
2022-11-23T06:34:16.506Z,17.95
2022-11-23T06:37:01.725Z,24.40
2022-11-23T06:39:47.366Z,23.85
2022-11-23T06:42:40.782Z,25.17
2022-11-23T06:45:37.862Z,30.92
2022-11-23T06:48:29.180Z,30.85
2022-11-23T06:51:16.415Z,19.33
2022-11-23T06:54:04.676Z,34.65
2022-11-23T06:56:50.243Z,26.17
2022-11-23T06:59:38.475Z,23.08
2022-11-23T07:02:27.139Z,22.58
2022-11-23T07:05:15.650Z,15.80
2022-11-23T07:08:00.926Z,19.10
2022-11-23T07:10:47.033Z,21.00
2022-11-23T07:13:34.935Z,22.55
2022-11-23T07:16:20.176Z,26.30
2022-11-23T07:19:08.962Z,25.85
2022-11-23T07:21:54.211Z,24.92
2022-11-23T07:24:43.947Z,23.83
2022-11-23T07:27:32.166Z,30.27
2022-11-23T07:30:19.238Z,24.35
2022-11-23T07:33:08.385Z,22.23
2022-11-23T07:35:54.850Z,22.35
2022-11-23T07:38:40.571Z,25.77
2022-11-23T07:41:30.030Z,26.52
2022-11-23T07:44:26.454Z,25.50
2022-11-23T07:47:11.979Z,23.13
2022-11-23T07:49:57.484Z,22.17
2022-11-23T07:52:43.257Z,33.03
2022-11-23T07:55:30.787Z,28.48
2022-11-23T07:58:16.463Z,36.83
2022-11-23T08:01:02.273Z,26.08
2022-11-23T08:03:50.717Z,25.55
2022-11-23T08:06:36.243Z,23.80
2022-11-23T08:09:21.830Z,24.98
2022-11-23T08:12:07.486Z,23.02
2022-11-23T08:14:53.119Z,21.67
2022-11-23T08:17:38.486Z,22.55
2022-11-23T08:20:26.110Z,26.35
2022-11-23T08:23:11.888Z,27.30
2022-11-23T08:25:57.246Z,19.88
2022-11-23T08:28:43.109Z,22.60
2022-11-23T08:31:28.647Z,27.85
2022-11-23T08:34:14.279Z,26.38
2022-11-23T08:36:59.975Z,21.77
2022-11-23T08:39:47.860Z,26.10
2022-11-23T08:42:36.002Z,35.03
2022-11-23T08:45:23.217Z,20.08
2022-11-23T08:48:09.689Z,26.40
2022-11-23T08:50:58.106Z,24.42
2022-11-23T08:53:43.777Z,22.50
2022-11-23T08:56:28.991Z,18.13
2022-11-23T08:59:15.371Z,25.70
2022-11-23T09:02:00.852Z,24.02
2022-11-23T09:04:46.085Z,20.95
2022-11-23T09:07:32.407Z,24.10
2022-11-23T09:10:18.982Z,22.83
2022-11-23T09:13:04.599Z,23.70
2022-11-23T09:15:50.110Z,29.58
2022-11-23T09:18:36.580Z,18.23
2022-11-23T09:21:21.883Z,16.70
2022-11-23T09:24:07.631Z,17.58
2022-11-23T09:26:52.697Z,18.98
2022-11-23T09:29:38.100Z,14.40
2022-11-23T09:32:23.249Z,20.90
2022-11-23T09:35:09.258Z,29.27
2022-11-23T09:38:05.953Z,19.23
2022-11-23T09:41:12.615Z,14.70
2022-11-23T09:44:05.263Z,13.52
2022-11-23T09:47:22.586Z,28.65
2022-11-23T09:50:09.130Z,19.30
2022-11-23T09:52:54.573Z,20.13
2022-11-23T09:55:49.557Z,16.70
2022-11-23T09:58:40.472Z,20.60
2022-11-23T10:01:30.581Z,23.17
2022-11-23T10:04:19.236Z,16.95
2022-11-23T10:07:34.106Z,19.63
2022-11-23T10:10:44.809Z,20.52
2022-11-23T10:13:41.453Z,19.13
2022-11-23T10:16:53.019Z,20.05
2022-11-23T10:20:08.266Z,15.93
2022-11-23T10:23:01.706Z,17.60
2022-11-23T10:25:50.582Z,20.52
2022-11-23T10:28:37.353Z,25.77
2022-11-23T10:31:26.015Z,16.65
2022-11-23T10:34:17.429Z,11.35
2022-11-23T10:37:08.718Z,17.42
2022-11-23T10:39:54.502Z,14.65
2022-11-23T10:42:52.934Z,13.65
2022-11-23T10:45:38.625Z,20.02
2022-11-23T10:48:44.934Z,18.38
2022-11-23T10:51:32.398Z,19.77
2022-11-23T10:54:25.294Z,11.65
2022-11-23T10:57:44.506Z,17.42
2022-11-23T11:00:31.454Z,10.05
2022-11-23T11:03:24.262Z,17.15
2022-11-23T11:06:11.198Z,16.23
2022-11-23T11:09:10.784Z,18.33
2022-11-23T11:11:58.764Z,12.02
2022-11-23T11:15:11.181Z,15.68
2022-11-23T11:17:58.811Z,18.88
2022-11-23T11:20:45.506Z,16.00
2022-11-23T11:23:32.631Z,15.77
2022-11-23T11:26:23.161Z,13.57
2022-11-23T11:29:32.692Z,12.30
2022-11-23T11:32:52.574Z,12.68
2022-11-23T11:35:43.414Z,13.77
2022-11-23T11:38:34.837Z,11.25
2022-11-23T11:41:25.315Z,15.85
2022-11-23T11:44:20.554Z,14.07
2022-11-23T11:50:31.835Z,12.00
2022-11-23T11:53:28.361Z,10.93
2022-11-23T11:56:31.247Z,13.00
2022-11-23T11:59:42.930Z,12.23
2022-11-23T12:02:38.571Z,14.65
2022-11-23T12:05:35.899Z,13.13
2022-11-23T12:08:38.321Z,14.32
2022-11-23T12:11:23.766Z,12.82
2022-11-23T12:14:16.164Z,12.70
2022-11-23T12:17:32.755Z,7.68
2022-11-23T12:20:30.027Z,11.07
2022-11-23T12:23:36.673Z,13.43
2022-11-23T12:27:19.846Z,12.30
2022-11-23T12:30:26.170Z,12.55
2022-11-23T12:33:26.207Z,15.48
2022-11-23T12:36:34.435Z,14.35
2022-11-23T12:40:10.816Z,14.45
2022-11-23T12:43:13.562Z,10.02
2022-11-23T12:46:10.439Z,12.32
2022-11-23T12:49:01.352Z,7.90
2022-11-23T12:52:24.889Z,10.80
2022-11-23T12:55:24.681Z,11.45
2022-11-23T12:58:31.074Z,9.25
2022-11-23T13:01:42.847Z,10.63
2022-11-23T13:05:09.612Z,13.70
2022-11-23T13:08:17.404Z,11.82
2022-11-23T13:11:39.141Z,15.68
2022-11-23T13:14:48.769Z,11.65
2022-11-23T13:18:20.867Z,11.77
2022-11-23T13:21:18.018Z,13.68
2022-11-23T13:24:04.269Z,14.35
2022-11-23T13:27:31.736Z,9.13
2022-11-23T13:30:45.525Z,14.48
2022-11-23T13:33:38.508Z,9.13
2022-11-23T13:36:56.224Z,13.80
2022-11-23T13:39:47.574Z,11.77
2022-11-23T13:42:36.549Z,14.82
2022-11-23T13:45:24.716Z,19.88
2022-11-23T13:48:13.267Z,14.85
2022-11-23T13:51:05.465Z,13.00
2022-11-23T13:53:55.626Z,16.95
2022-11-23T13:56:43.169Z,13.20
2022-11-23T13:59:34.839Z,15.82
2022-11-23T14:02:29.500Z,9.82
2022-11-23T14:05:49.734Z,12.43
2022-11-23T14:08:37.012Z,13.38
2022-11-23T14:11:24.053Z,14.55
2022-11-23T14:14:20.238Z,13.35
2022-11-23T14:17:31.043Z,15.15
2022-11-23T14:20:35.029Z,13.90
2022-11-23T14:23:35.412Z,8.10
2022-11-23T14:26:52.118Z,18.08
2022-11-23T14:30:23.266Z,9.68
2022-11-23T14:33:24.621Z,9.30
2022-11-23T14:36:31.854Z,16.25
2022-11-23T14:39:51.467Z,12.68
2022-11-23T14:42:45.891Z,10.90
2022-11-23T14:45:37.077Z,15.38
2022-11-23T14:48:30.835Z,19.23
2022-11-23T14:51:26.781Z,9.45
2022-11-23T14:54:16.231Z,10.98
2022-11-23T14:57:04.752Z,13.70
2022-11-23T14:59:55.129Z,9.00
2022-11-23T15:02:43.061Z,15.27
2022-11-23T15:05:36.591Z,11.25
2022-11-23T15:08:39.004Z,18.52
2022-11-23T15:11:28.584Z,16.90
2022-11-23T15:14:19.913Z,7.80
2022-11-23T15:17:16.577Z,6.80
2022-11-23T15:20:04.114Z,9.98
2022-11-23T15:22:49.771Z,14.00
2022-11-23T15:25:35.306Z,8.40
2022-11-23T15:28:27.375Z,17.75
2022-11-23T15:31:35.580Z,10.13
2022-11-23T15:34:22.227Z,11.02
2022-11-23T15:37:10.077Z,15.00
2022-11-23T15:39:56.826Z,9.52
2022-11-23T15:42:44.331Z,13.18
2022-11-23T15:45:41.517Z,7.60
2022-11-23T15:48:30.702Z,8.55
2022-11-23T15:51:49.716Z,8.57
2022-11-23T15:54:37.298Z,13.50
2022-11-23T15:57:26.518Z,10.15
2022-11-23T16:00:26.165Z,13.00
2022-11-23T16:03:23.671Z,7.78
2022-11-23T16:06:16.213Z,8.88
2022-11-23T16:09:02.669Z,10.23
2022-11-23T16:11:50.078Z,11.13
2022-11-23T16:14:36.930Z,14.82
2022-11-23T16:17:29.627Z,9.32
2022-11-23T16:20:16.481Z,14.30
2022-11-23T16:23:02.307Z,18.40
2022-11-23T16:25:58.213Z,7.03
2022-11-23T16:28:55.201Z,14.02
2022-11-23T16:31:42.150Z,11.40
2022-11-23T16:34:28.124Z,11.13
2022-11-23T16:37:13.672Z,10.20
2022-11-23T16:39:59.104Z,10.98
2022-11-23T16:42:45.153Z,9.95
2022-11-23T16:45:31.947Z,13.20
2022-11-23T16:48:26.349Z,9.45
2022-11-23T16:51:14.465Z,9.52
2022-11-23T16:54:19.079Z,8.15
2022-11-23T16:57:06.213Z,11.60
2022-11-23T16:59:51.441Z,12.65
2022-11-23T17:02:36.631Z,10.05
2022-11-23T17:05:25.579Z,12.75
2022-11-23T17:08:18.174Z,9.70
2022-11-23T17:11:13.573Z,8.93
2022-11-23T17:13:59.595Z,15.85
2022-11-23T17:16:45.243Z,13.38
2022-11-23T17:19:31.354Z,15.75
2022-11-23T17:22:19.365Z,13.70
2022-11-23T17:25:11.584Z,18.25
2022-11-23T17:28:01.467Z,9.63
2022-11-23T17:30:47.198Z,12.05
2022-11-23T17:33:35.522Z,14.27
2022-11-23T17:36:21.383Z,13.30
2022-11-23T17:39:07.336Z,11.55
2022-11-23T17:41:52.881Z,15.57
2022-11-23T17:44:44.853Z,18.25
2022-11-23T17:47:30.621Z,14.98
2022-11-23T17:50:19.305Z,11.52
2022-11-23T17:53:05.123Z,14.45
2022-11-23T17:55:50.614Z,13.73
2022-11-23T17:58:36.134Z,18.02
2022-11-23T18:01:22.752Z,16.33
2022-11-23T18:04:08.466Z,18.58
2022-11-23T18:06:53.734Z,19.20
2022-11-23T18:09:39.762Z,14.48
2022-11-23T18:12:25.098Z,13.88
2022-11-23T18:15:10.779Z,17.75
2022-11-23T18:18:01.541Z,14.02
2022-11-23T18:20:49.925Z,22.38
2022-11-23T18:23:35.223Z,15.30
2022-11-23T18:26:23.059Z,19.92
2022-11-23T18:29:14.108Z,16.75
2022-11-23T18:32:03.089Z,19.08
2022-11-23T18:34:48.744Z,23.10
2022-11-23T18:37:34.198Z,15.25
2022-11-23T18:40:19.818Z,19.83
2022-11-23T18:43:05.529Z,19.80
2022-11-23T18:45:54.378Z,22.42
2022-11-23T18:48:39.784Z,20.55
2022-11-23T18:51:26.189Z,21.35
2022-11-23T18:54:11.534Z,27.77
2022-11-23T18:56:56.823Z,17.00
2022-11-23T18:59:57.417Z,21.15
2022-11-23T19:02:43.935Z,23.88
2022-11-23T19:05:35.073Z,21.83
2022-11-23T19:08:20.551Z,21.50
2022-11-23T19:11:08.278Z,28.02
2022-11-23T19:13:56.225Z,24.02
2022-11-23T19:16:42.187Z,32.25
2022-11-23T19:19:27.750Z,18.83
2022-11-23T19:22:15.193Z,32.55
2022-11-23T19:25:00.236Z,21.10
2022-11-23T19:27:48.995Z,25.13
2022-11-23T19:30:34.520Z,31.35
2022-11-23T19:33:20.027Z,25.27
2022-11-23T19:36:10.966Z,32.58
2022-11-23T19:38:58.034Z,24.55
2022-11-23T19:41:43.522Z,34.53
2022-11-23T19:44:28.735Z,24.25
2022-11-23T19:47:19.909Z,26.48
2022-11-23T19:50:07.265Z,21.00
2022-11-23T19:53:11.727Z,24.27
2022-11-23T19:56:09.842Z,32.00
2022-11-23T19:59:00.185Z,33.78
2022-11-23T20:01:46.030Z,29.05
2022-11-23T20:04:31.744Z,33.70
2022-11-23T20:07:17.532Z,28.27
2022-11-23T20:10:03.795Z,29.48
2022-11-23T20:12:49.414Z,30.15
2022-11-23T20:15:34.597Z,31.15
2022-11-23T20:18:20.769Z,22.45
2022-11-23T20:21:12.377Z,25.98
2022-11-23T20:24:05.421Z,19.98
2022-11-23T20:26:51.350Z,16.45
2022-11-23T20:29:36.566Z,23.73
2022-11-23T20:32:22.000Z,23.98
2022-11-23T20:35:08.253Z,26.52
2022-11-23T20:37:53.818Z,16.83
2022-11-23T20:40:39.336Z,26.80
2022-11-23T20:43:24.569Z,23.98
2022-11-23T20:46:16.721Z,32.25
2022-11-23T20:49:08.065Z,27.48
2022-11-23T20:51:53.665Z,28.48
2022-11-23T20:54:39.192Z,30.40
2022-11-23T20:57:24.918Z,29.10
2022-11-23T21:00:12.036Z,25.20
2022-11-23T21:02:57.385Z,28.90
2022-11-23T21:05:47.022Z,25.23
2022-11-23T21:08:35.065Z,32.95
2022-11-23T21:11:44.733Z,36.83
2022-11-23T21:14:33.145Z,33.80
2022-11-23T21:17:20.315Z,34.75
2022-11-23T21:20:12.290Z,40.42
2022-11-23T21:22:57.724Z,32.53
2022-11-23T21:25:43.767Z,30.42
2022-11-23T21:28:30.138Z,35.45
2022-11-23T21:31:15.647Z,37.10
2022-11-23T21:34:05.287Z,28.85
2022-11-23T21:36:56.700Z,42.13
2022-11-23T21:39:41.978Z,31.92
2022-11-23T21:42:27.560Z,36.33
2022-11-23T21:45:15.891Z,40.40
2022-11-23T21:48:01.355Z,24.02
2022-11-23T21:50:46.802Z,41.00
2022-11-23T21:53:33.169Z,43.88
2022-11-23T21:56:18.431Z,30.27
2022-11-23T21:59:04.269Z,52.42
2022-11-23T22:01:49.737Z,40.28
2022-11-23T22:04:37.533Z,44.08
2022-11-23T22:07:23.297Z,43.42
2022-11-23T22:10:11.848Z,30.20
2022-11-23T22:12:57.368Z,32.50
2022-11-23T22:15:43.025Z,33.67
2022-11-23T22:18:29.427Z,42.70
2022-11-23T22:21:16.425Z,46.33
2022-11-23T22:24:03.666Z,44.03
2022-11-23T22:26:49.069Z,39.75
2022-11-23T22:29:35.506Z,44.22
2022-11-23T22:32:20.895Z,34.03
2022-11-23T22:35:07.157Z,37.05
2022-11-23T22:37:52.629Z,41.72
2022-11-23T22:40:40.710Z,41.83
2022-11-23T22:43:26.672Z,39.00
2022-11-23T22:46:14.710Z,40.38
2022-11-23T22:49:00.441Z,34.15
2022-11-23T22:51:45.605Z,30.33
2022-11-23T22:54:31.710Z,38.75
2022-11-23T22:57:17.388Z,29.65
2022-11-23T23:00:02.642Z,36.25
2022-11-23T23:02:48.819Z,32.15
2022-11-23T23:05:37.158Z,27.67
2022-11-23T23:08:29.196Z,29.38
2022-11-23T23:11:15.875Z,40.80
2022-11-23T23:14:01.553Z,32.22
2022-11-23T23:16:47.225Z,35.53
2022-11-23T23:19:32.891Z,25.00
2022-11-23T23:22:31.532Z,31.27
2022-11-23T23:25:17.104Z,26.65
2022-11-23T23:28:05.501Z,22.05
2022-11-23T23:30:58.793Z,21.35
2022-11-23T23:33:46.014Z,26.98
2022-11-23T23:36:31.336Z,26.63
2022-11-23T23:39:17.118Z,28.73
2022-11-23T23:42:05.065Z,18.73
2022-11-23T23:44:53.575Z,19.55
2022-11-23T23:47:39.091Z,27.42
2022-11-23T23:50:24.646Z,18.92
2022-11-23T23:53:09.923Z,23.45
2022-11-23T23:56:00.049Z,28.35
2022-11-23T23:58:46.104Z,22.77
